Time;durP1;ratioP1;P1;durP2;ratioP2;P2;SDS_P1;SDS_P2;PMS_P1;PMS_P2;Temp;Humidity;BMP_temperature;BMP_pressure;BME280_temperature;BME280_humidity;BME280_pressure;Samples;Min_cycle;Max_cycle;Signal;HPM_P1;HPM_P2
2024/02/16 00:01:37;;;;;;;9.75;5.35;;;7.80;83.10;;;;;;4979879;28;20030;-63
2024/02/16 00:04:02;;;;;;;10.05;5.85;;;7.80;83.10;;;;;;4979684;28;20031;-62
2024/02/16 00:06:28;;;;;;;8.48;5.88;;;7.80;83.50;;;;;;4983550;28;20621;-63
2024/02/16 00:08:53;;;;;;;9.70;6.32;;;7.80;83.60;;;;;;4981324;28;20030;-63
2024/02/16 00:11:20;;;;;;;8.98;5.65;;;7.80;83.40;;;;;;4983543;28;20093;-63
2024/02/16 00:13:45;;;;;;;7.95;5.90;;;7.80;83.30;;;;;;4980915;28;20043;-60
2024/02/16 00:16:11;;;;;;;8.20;5.30;;;7.80;83.30;;;;;;4983942;28;20132;-61
2024/02/16 00:18:36;;;;;;;7.22;5.22;;;7.80;83.00;;;;;;4977465;28;20046;-63
2024/02/16 00:21:02;;;;;;;7.70;5.05;;;7.70;82.90;;;;;;4976017;28;20034;-63
2024/02/16 00:23:28;;;;;;;9.07;5.57;;;7.70;82.90;;;;;;4979649;28;20561;-63
2024/02/16 00:25:53;;;;;;;8.25;5.45;;;7.60;82.80;;;;;;4982914;28;20034;-62
2024/02/16 00:28:19;;;;;;;8.57;5.72;;;7.60;82.90;;;;;;4977743;28;20038;-62
2024/02/16 00:30:46;;;;;;;9.00;6.15;;;7.60;82.90;;;;;;4982646;28;20092;-64
2024/02/16 00:33:12;;;;;;;9.63;6.20;;;7.50;83.20;;;;;;4978991;28;20046;-63
2024/02/16 00:35:38;;;;;;;8.40;5.70;;;7.50;84.00;;;;;;4981451;28;20038;-62
2024/02/16 00:38:03;;;;;;;7.32;5.50;;;7.40;84.50;;;;;;4978372;28;20041;-63
2024/02/16 00:40:29;;;;;;;8.73;5.70;;;7.40;84.60;;;;;;4977128;28;20030;-62
2024/02/16 00:42:55;;;;;;;6.53;5.07;;;7.40;84.70;;;;;;4981822;28;20215;-63
2024/02/16 00:45:20;;;;;;;8.30;5.57;;;7.40;84.90;;;;;;4980304;28;20042;-63
2024/02/16 00:47:46;;;;;;;8.50;5.30;;;7.40;84.80;;;;;;4979390;28;20034;-62
2024/02/16 00:50:12;;;;;;;6.40;5.20;;;7.40;84.80;;;;;;4975907;28;20038;-63
2024/02/16 00:52:39;;;;;;;8.05;5.38;;;7.40;84.70;;;;;;4982260;28;20041;-63
2024/02/16 00:55:05;;;;;;;7.38;5.57;;;7.50;84.60;;;;;;4985701;28;20062;-62
2024/02/16 00:57:30;;;;;;;7.93;5.55;;;7.50;84.50;;;;;;4980911;28;20045;-62
2024/02/16 00:59:56;;;;;;;8.32;5.72;;;7.50;84.60;;;;;;4981027;28;20589;-63
2024/02/16 01:02:22;;;;;;;11.52;6.32;;;7.50;84.70;;;;;;4979174;28;20038;-63
2024/02/16 01:04:50;;;;;;;9.50;6.00;;;7.40;84.90;;;;;;4979277;28;20023;-62
2024/02/16 01:07:15;;;;;;;9.50;6.97;;;7.40;85.30;;;;;;4978444;28;20026;-62
2024/02/16 01:09:41;;;;;;;8.40;5.75;;;7.40;85.50;;;;;;4978267;28;20046;-61
2024/02/16 01:12:07;;;;;;;8.30;5.68;;;7.40;85.70;;;;;;4979149;28;20502;-62
2024/02/16 01:14:32;;;;;;;11.23;5.72;;;7.40;85.70;;;;;;4981519;28;21142;-63
2024/02/16 01:16:58;;;;;;;10.07;6.55;;;7.50;85.70;;;;;;4980315;28;20050;-62
2024/02/16 01:19:23;;;;;;;8.82;6.07;;;7.50;85.60;;;;;;4977740;28;20030;-63
2024/02/16 01:21:52;;;;;;;7.90;5.65;;;7.50;85.70;;;;;;4979264;28;20030;-63
2024/02/16 01:24:18;;;;;;;7.43;5.47;;;7.50;85.90;;;;;;4982734;28;20406;-62
2024/02/16 01:26:44;;;;;;;7.85;6.07;;;7.50;85.70;;;;;;4979320;28;20065;-64
2024/02/16 01:29:09;;;;;;;7.90;5.47;;;7.50;86.50;;;;;;4982037;28;20716;-63
2024/02/16 01:31:36;;;;;;;8.07;5.78;;;7.50;85.60;;;;;;4978501;28;20397;-62
2024/02/16 01:34:02;;;;;;;7.03;5.65;;;7.60;85.50;;;;;;4981324;28;20046;-62
2024/02/16 01:36:28;;;;;;;8.18;5.25;;;7.60;85.30;;;;;;4978775;28;20031;-62
2024/02/16 01:38:53;;;;;;;6.53;4.97;;;7.60;85.20;;;;;;4981232;28;20082;-62
2024/02/16 01:41:19;;;;;;;6.63;4.95;;;7.60;85.20;;;;;;4985890;28;20061;-62
2024/02/16 01:43:45;;;;;;;7.25;5.32;;;7.60;85.10;;;;;;4986085;28;20042;-60
2024/02/16 01:46:11;;;;;;;7.50;5.47;;;7.60;85.00;;;;;;4981731;28;20517;-63
2024/02/16 01:48:39;;;;;;;6.75;5.30;;;7.70;85.00;;;;;;4982853;28;20618;-63
2024/02/16 01:51:07;;;;;;;7.80;5.35;;;7.70;84.80;;;;;;4984048;28;20058;-63
2024/02/16 01:53:34;;;;;;;7.82;5.40;;;7.70;84.80;;;;;;4983212;28;20087;-63
2024/02/16 01:55:59;;;;;;;7.57;5.90;;;7.70;84.60;;;;;;4983976;28;20399;-64
2024/02/16 01:58:26;;;;;;;7.85;5.78;;;7.70;84.60;;;;;;4987014;28;20035;-63
2024/02/16 02:00:52;;;;;;;7.22;5.55;;;7.70;84.60;;;;;;4979994;28;20133;-64
2024/02/16 02:03:18;;;;;;;7.07;5.47;;;7.70;84.60;;;;;;4980302;28;20142;-63
2024/02/16 02:05:45;;;;;;;8.32;6.05;;;7.70;84.70;;;;;;4985257;28;20042;-63
2024/02/16 02:08:11;;;;;;;8.27;6.47;;;7.70;84.80;;;;;;4985029;28;20035;-63
2024/02/16 02:10:37;;;;;;;10.63;6.40;;;7.70;85.00;;;;;;4979411;28;20093;-62
2024/02/16 02:13:02;;;;;;;10.85;6.25;;;7.70;85.10;;;;;;4982856;28;20031;-63
2024/02/16 02:15:28;;;;;;;7.85;5.57;;;7.70;85.40;;;;;;4982617;28;20077;-63
2024/02/16 02:17:54;;;;;;;8.25;5.90;;;7.70;85.50;;;;;;4985303;28;20208;-63
2024/02/16 02:20:19;;;;;;;6.57;5.60;;;7.70;85.50;;;;;;4985485;28;20035;-64
2024/02/16 02:22:45;;;;;;;7.80;5.75;;;7.70;85.40;;;;;;4983240;28;20039;-63
2024/02/16 02:25:11;;;;;;;7.50;5.53;;;7.70;85.30;;;;;;4980231;28;20030;-63
2024/02/16 02:27:37;;;;;;;7.95;5.15;;;7.70;85.30;;;;;;4980759;28;20034;-63
2024/02/16 02:30:03;;;;;;;9.23;6.22;;;7.70;85.30;;;;;;4980904;28;20046;-62
2024/02/16 02:32:29;;;;;;;6.18;5.18;;;7.70;85.20;;;;;;4986028;28;20421;-64
2024/02/16 02:34:55;;;;;;;7.85;5.90;;;7.80;85.20;;;;;;4986307;28;20034;-64
2024/02/16 02:37:20;;;;;;;9.30;5.55;;;7.80;85.20;;;;;;4984843;28;20038;-62
2024/02/16 02:39:46;;;;;;;6.60;5.65;;;7.80;85.20;;;;;;4979495;28;20518;-62
2024/02/16 02:42:11;;;;;;;7.30;5.78;;;7.70;85.10;;;;;;4983452;28;20026;-62
2024/02/16 02:44:37;;;;;;;10.38;6.05;;;7.70;85.10;;;;;;4986397;28;20041;-63
2024/02/16 02:47:02;;;;;;;9.88;6.60;;;7.60;84.70;;;;;;4987578;28;20069;-61
2024/02/16 02:49:28;;;;;;;9.75;6.63;;;7.70;84.60;;;;;;4985240;28;20034;-62
2024/02/16 02:51:54;;;;;;;9.73;6.97;;;7.60;84.60;;;;;;4980523;28;20046;-61
2024/02/16 02:54:19;;;;;;;9.63;7.13;;;7.60;84.80;;;;;;4980506;28;20037;-62
2024/02/16 02:56:45;;;;;;;8.10;6.30;;;7.50;84.80;;;;;;4981648;28;20045;-63
2024/02/16 02:59:10;;;;;;;9.40;6.50;;;7.50;84.80;;;;;;4982874;28;20053;-63
2024/02/16 03:01:36;;;;;;;9.10;6.50;;;7.50;84.90;;;;;;4987088;28;20030;-63
2024/02/16 03:04:02;;;;;;;9.23;6.63;;;7.50;85.00;;;;;;4981402;28;20253;-63
2024/02/16 03:06:28;;;;;;;10.07;6.90;;;7.50;85.10;;;;;;4981231;28;20498;-63
2024/02/16 03:08:54;;;;;;;10.07;7.22;;;7.50;85.00;;;;;;4983777;28;20042;-62
2024/02/16 03:11:20;;;;;;;9.77;7.00;;;7.50;84.90;;;;;;4980146;28;20035;-63
2024/02/16 03:13:46;;;;;;;7.18;6.15;;;7.50;85.00;;;;;;4981110;28;20042;-63
2024/02/16 03:16:11;;;;;;;6.88;5.90;;;7.50;85.10;;;;;;4984301;28;20101;-62
2024/02/16 03:18:37;;;;;;;8.30;5.70;;;7.40;85.20;;;;;;4984623;28;20076;-63
2024/02/16 03:21:03;;;;;;;8.43;5.88;;;7.40;85.20;;;;;;4986112;28;20093;-61
2024/02/16 03:23:29;;;;;;;7.43;5.88;;;7.40;85.30;;;;;;4979502;28;20261;-61
2024/02/16 03:25:54;;;;;;;8.30;6.00;;;7.40;85.30;;;;;;4981518;28;20038;-61
2024/02/16 03:28:23;;;;;;;11.07;6.20;;;7.40;85.30;;;;;;4978650;28;20038;-62
2024/02/16 03:30:48;;;;;;;7.85;6.38;;;7.40;85.40;;;;;;4977092;28;20042;-63
2024/02/16 03:33:14;;;;;;;8.10;6.05;;;7.40;85.30;;;;;;4984756;28;20236;-61
2024/02/16 03:35:40;;;;;;;8.93;6.15;;;7.40;85.30;;;;;;4982395;28;20038;-63
2024/02/16 03:38:06;;;;;;;8.07;6.00;;;7.40;85.30;;;;;;4979993;28;20050;-63
2024/02/16 03:40:32;;;;;;;8.45;6.18;;;7.40;85.30;;;;;;4981932;28;20537;-63
2024/02/16 03:42:58;;;;;;;8.40;6.60;;;7.40;85.20;;;;;;4986149;28;20081;-63
2024/02/16 03:45:24;;;;;;;9.80;6.88;;;7.40;85.30;;;;;;4981974;28;20070;-65
2024/02/16 03:47:52;;;;;;;10.15;6.82;;;7.40;85.40;;;;;;4986783;28;20042;-63
2024/02/16 03:50:18;;;;;;;9.30;6.45;;;7.40;85.50;;;;;;4983856;28;20038;-62
2024/02/16 03:52:44;;;;;;;8.82;6.30;;;7.40;85.80;;;;;;4976892;28;20046;-61
2024/02/16 03:55:10;;;;;;;10.93;6.43;;;7.40;85.90;;;;;;4975665;28;20038;-63
2024/02/16 03:57:36;;;;;;;8.27;6.25;;;7.30;86.00;;;;;;4982624;28;20154;-63
2024/02/16 04:00:05;;;;;;;7.25;5.95;;;7.30;85.90;;;;;;4986487;28;20041;-63
2024/02/16 04:02:31;;;;;;;7.32;5.95;;;7.30;85.70;;;;;;4982561;28;20085;-63
2024/02/16 04:04:56;;;;;;;8.75;6.03;;;7.30;85.50;;;;;;4981515;28;20051;-62
2024/02/16 04:07:22;;;;;;;7.07;5.78;;;7.30;85.50;;;;;;4974985;28;20498;-62
2024/02/16 04:09:47;;;;;;;7.50;6.15;;;7.30;85.40;;;;;;4983154;28;20157;-63
2024/02/16 04:12:13;;;;;;;6.97;5.78;;;7.30;85.30;;;;;;4985392;28;20049;-61
2024/02/16 04:14:38;;;;;;;8.82;6.32;;;7.30;85.30;;;;;;4981434;28;20058;-62
2024/02/16 04:17:04;;;;;;;6.90;5.90;;;7.30;85.40;;;;;;4978294;28;20449;-63
2024/02/16 04:19:30;;;;;;;10.73;6.40;;;7.30;85.50;;;;;;4983979;28;20069;-63
2024/02/16 04:21:55;;;;;;;9.15;6.00;;;7.20;85.30;;;;;;4980360;28;20070;-62
2024/02/16 04:24:21;;;;;;;9.73;6.18;;;7.20;85.50;;;;;;4981549;28;20034;-62
2024/02/16 04:26:47;;;;;;;10.13;6.43;;;7.20;85.50;;;;;;4980934;28;20137;-61
2024/02/16 04:29:12;;;;;;;9.75;7.53;;;7.20;85.70;;;;;;4983951;28;20034;-61
2024/02/16 04:31:42;;;;;;;10.95;8.07;;;7.20;86.00;;;;;;4977226;28;20058;-62
2024/02/16 04:34:08;;;;;;;10.65;7.45;;;7.10;86.80;;;;;;4982751;28;20117;-63
2024/02/16 04:36:34;;;;;;;9.93;7.13;;;7.20;87.10;;;;;;4978171;28;20047;-63
2024/02/16 04:39:00;;;;;;;9.02;6.90;;;7.20;87.10;;;;;;4980943;28;20035;-63
2024/02/16 04:41:25;;;;;;;7.80;6.30;;;7.20;86.90;;;;;;4978815;28;20038;-63
2024/02/16 04:43:51;;;;;;;8.13;6.70;;;7.20;86.70;;;;;;4978572;28;20033;-63
2024/02/16 04:46:17;;;;;;;8.70;6.35;;;7.20;86.70;;;;;;4975818;28;22199;-63
2024/02/16 04:48:42;;;;;;;8.85;7.18;;;7.20;86.50;;;;;;4981200;28;20121;-63
2024/02/16 04:51:08;;;;;;;9.38;6.45;;;7.20;86.20;;;;;;4980426;28;20045;-62
2024/02/16 04:53:34;;;;;;;7.75;6.55;;;7.20;86.00;;;;;;4979840;28;20072;-63
2024/02/16 04:55:59;;;;;;;8.75;6.82;;;7.20;86.00;;;;;;4977039;28;20108;-63
2024/02/16 04:58:25;;;;;;;10.02;6.90;;;7.20;85.90;;;;;;4976896;28;20047;-62
2024/02/16 05:00:51;;;;;;;12.05;7.65;;;7.30;85.90;;;;;;4977918;28;20485;-62
2024/02/16 05:03:17;;;;;;;12.20;8.30;;;7.30;85.70;;;;;;4976936;28;20042;-63
2024/02/16 05:05:43;;;;;;;10.90;7.95;;;7.20;85.80;;;;;;4981262;28;20038;-64
2024/02/16 05:08:09;;;;;;;11.32;8.45;;;7.20;85.80;;;;;;4977648;28;20054;-63
2024/02/16 05:10:35;;;;;;;12.02;8.10;;;7.20;86.00;;;;;;4981796;28;20059;-63
2024/02/16 05:13:00;;;;;;;10.18;7.93;;;7.20;86.20;;;;;;4981416;28;20148;-62
2024/02/16 05:15:26;;;;;;;12.10;8.13;;;7.10;86.40;;;;;;4976778;28;20141;-62
2024/02/16 05:17:51;;;;;;;11.20;8.43;;;7.10;86.60;;;;;;4981608;28;20041;-63
2024/02/16 05:20:19;;;;;;;12.50;8.20;;;7.10;86.70;;;;;;4977328;28;20035;-63
2024/02/16 05:22:46;;;;;;;10.10;7.80;;;7.10;86.60;;;;;;4975670;28;20070;-63
2024/02/16 05:25:18;;;;;;;20.08;13.10;;;7.10;86.40;;;;;;4981778;28;20039;-63
2024/02/16 05:27:44;;;;;;;24.38;14.02;;;7.10;86.30;;;;;;4981592;28;20121;-63
2024/02/16 05:30:12;;;;;;;19.02;12.13;;;7.10;86.00;;;;;;4982306;28;20058;-63
2024/02/16 05:32:38;;;;;;;13.25;10.10;;;7.00;86.00;;;;;;4975742;28;20084;-62
2024/02/16 05:35:11;;;;;;;22.67;15.07;;;7.00;85.90;;;;;;4979875;28;20045;-63
2024/02/16 05:37:39;;;;;;;23.42;15.98;;;7.00;85.90;;;;;;4978712;28;20039;-62
2024/02/16 05:40:24;;;;;;;29.92;18.20;;;6.90;85.80;;;;;;4986244;28;20031;-63
2024/02/16 05:42:51;;;;;;;18.48;11.45;;;6.90;85.90;;;;;;4983214;28;20054;-62
2024/02/16 05:45:17;;;;;;;11.43;9.18;;;6.90;85.70;;;;;;4983454;28;20057;-63
2024/02/16 05:47:45;;;;;;;10.27;7.75;;;6.90;85.50;;;;;;4976942;28;20659;-64
2024/02/16 05:50:11;;;;;;;10.98;7.93;;;6.80;85.50;;;;;;4980705;28;20421;-63
2024/02/16 05:52:40;;;;;;;10.88;7.90;;;6.80;85.60;;;;;;4978380;28;20294;-63
2024/02/16 05:55:07;;;;;;;14.23;10.40;;;6.80;85.60;;;;;;4983854;28;20038;-63
2024/02/16 05:57:32;;;;;;;14.90;11.20;;;6.80;85.70;;;;;;4983913;28;20125;-63
2024/02/16 05:59:58;;;;;;;18.08;12.48;;;6.70;85.70;;;;;;4983151;28;20114;-63
2024/02/16 06:02:27;;;;;;;15.45;11.45;;;6.80;85.70;;;;;;4984326;28;20072;-61
2024/02/16 06:04:53;;;;;;;20.83;11.15;;;6.70;85.60;;;;;;4980104;28;20466;-64
2024/02/16 06:07:19;;;;;;;14.25;9.88;;;6.70;85.50;;;;;;4980050;28;20553;-63
2024/02/16 06:09:44;;;;;;;15.00;9.77;;;6.80;85.40;;;;;;4986438;28;20061;-63
2024/02/16 06:12:11;;;;;;;11.95;8.55;;;6.70;85.50;;;;;;4983285;28;20031;-64
2024/02/16 06:14:37;;;;;;;11.48;9.05;;;6.70;86.30;;;;;;4981079;28;20425;-63
2024/02/16 06:17:03;;;;;;;19.17;10.20;;;6.60;85.70;;;;;;4977854;28;20034;-62
2024/02/16 06:19:28;;;;;;;18.85;11.52;;;6.60;85.80;;;;;;4978922;28;20560;-64
2024/02/16 06:21:54;;;;;;;16.60;10.52;;;6.70;86.00;;;;;;4981770;28;20027;-64
2024/02/16 06:24:23;;;;;;;17.17;11.38;;;6.70;86.20;;;;;;4984812;28;20030;-63
2024/02/16 06:26:50;;;;;;;22.80;12.43;;;6.70;86.40;;;;;;4984761;28;20031;-64
2024/02/16 06:29:15;;;;;;;24.55;13.75;;;6.70;86.40;;;;;;4985055;28;20089;-63
2024/02/16 06:31:41;;;;;;;21.75;13.13;;;6.70;86.60;;;;;;4978742;28;20442;-63
2024/02/16 06:34:08;;;;;;;22.40;12.60;;;6.70;86.70;;;;;;4984679;28;20039;-64
2024/02/16 06:36:34;;;;;;;21.38;13.05;;;6.80;86.60;;;;;;4989296;28;20223;-64
2024/02/16 06:39:00;;;;;;;21.02;12.18;;;6.80;86.60;;;;;;4983320;28;20316;-63
2024/02/16 06:41:26;;;;;;;23.48;12.98;;;6.80;86.50;;;;;;4984373;28;20054;-64
2024/02/16 06:43:51;;;;;;;24.10;13.15;;;6.80;86.60;;;;;;4982301;28;20082;-63
2024/02/16 06:46:17;;;;;;;22.10;11.98;;;6.80;86.60;;;;;;4981822;28;20345;-64
2024/02/16 06:48:42;;;;;;;17.67;11.57;;;6.80;86.70;;;;;;4981133;28;20039;-63
2024/02/16 06:51:08;;;;;;;17.20;12.10;;;6.80;86.80;;;;;;4988598;28;20042;-63
2024/02/16 06:53:34;;;;;;;20.65;12.52;;;6.80;87.00;;;;;;4988595;28;20050;-64
2024/02/16 06:55:59;;;;;;;18.85;11.77;;;6.80;86.80;;;;;;4980845;28;20411;-63
2024/02/16 06:58:25;;;;;;;17.23;10.98;;;6.90;87.60;;;;;;4988369;28;20042;-64
2024/02/16 07:00:51;;;;;;;19.63;11.35;;;6.90;87.50;;;;;;4983428;28;20105;-64
2024/02/16 07:03:18;;;;;;;15.35;11.25;;;6.90;87.40;;;;;;4985390;28;20117;-63
2024/02/16 07:05:43;;;;;;;14.80;10.98;;;6.90;87.40;;;;;;4986874;28;20418;-63
2024/02/16 07:08:09;;;;;;;14.95;11.05;;;7.00;87.60;;;;;;4987130;28;20038;-63
2024/02/16 07:10:35;;;;;;;18.83;10.88;;;6.90;87.70;;;;;;4981110;28;20121;-63
2024/02/16 07:13:00;;;;;;;17.10;11.18;;;7.00;87.50;;;;;;4983302;28;20472;-63
2024/02/16 07:15:26;;;;;;;16.67;11.30;;;7.00;87.30;;;;;;4986052;28;20050;-63
2024/02/16 07:17:53;;;;;;;17.30;11.50;;;7.00;87.20;;;;;;4989017;28;20038;-62
2024/02/16 07:20:18;;;;;;;15.98;11.60;;;7.00;87.30;;;;;;4984821;28;20525;-62
2024/02/16 07:22:46;;;;;;;27.63;11.38;;;7.00;87.60;;;;;;4984138;28;20042;-61
2024/02/16 07:25:12;;;;;;;19.27;10.82;;;7.10;87.80;;;;;;4982914;28;20039;-61
2024/02/16 07:27:38;;;;;;;17.00;11.50;;;7.10;87.60;;;;;;4980739;28;20537;-63
2024/02/16 07:30:04;;;;;;;19.38;11.45;;;7.10;87.50;;;;;;4990633;28;20069;-63
2024/02/16 07:32:30;;;;;;;16.02;11.77;;;7.10;87.40;;;;;;4984623;28;20037;-61
2024/02/16 07:34:56;;;;;;;17.15;11.70;;;7.10;87.50;;;;;;4988153;28;20042;-62
2024/02/16 07:37:21;;;;;;;16.55;11.30;;;7.10;87.50;;;;;;4983809;28;20038;-60
2024/02/16 07:39:47;;;;;;;16.10;10.80;;;7.10;87.60;;;;;;4984924;28;20486;-62
2024/02/16 07:42:12;;;;;;;19.70;11.15;;;7.10;87.80;;;;;;4985175;28;20026;-63
2024/02/16 07:44:39;;;;;;;17.58;11.20;;;7.20;87.80;;;;;;4982229;28;20074;-61
2024/02/16 07:47:05;;;;;;;17.30;10.68;;;7.20;87.60;;;;;;4984544;28;20172;-62
2024/02/16 07:49:31;;;;;;;20.17;11.32;;;7.20;87.60;;;;;;4983845;28;20597;-62
2024/02/16 07:51:57;;;;;;;15.80;11.02;;;7.20;87.60;;;;;;4985318;28;20124;-61
2024/02/16 07:54:23;;;;;;;16.13;11.15;;;7.20;87.60;;;;;;4983163;28;20038;-62
2024/02/16 07:56:49;;;;;;;16.27;10.80;;;7.20;87.60;;;;;;4984639;28;20030;-63
2024/02/16 07:59:14;;;;;;;21.52;11.68;;;7.30;87.70;;;;;;4984153;28;20057;-61
2024/02/16 08:01:40;;;;;;;21.10;11.52;;;7.30;87.80;;;;;;4983481;28;20042;-62
2024/02/16 08:04:06;;;;;;;19.67;10.85;;;7.30;88.00;;;;;;4985328;28;20734;-61
2024/02/16 08:06:31;;;;;;;18.10;12.05;;;7.40;89.00;;;;;;4979323;28;20069;-61
2024/02/16 08:08:57;;;;;;;17.05;11.45;;;7.40;88.20;;;;;;4985759;28;20409;-61
2024/02/16 08:11:23;;;;;;;18.13;11.45;;;7.40;88.20;;;;;;4981986;28;20026;-62
2024/02/16 08:13:48;;;;;;;19.08;10.80;;;7.40;88.20;;;;;;4985220;28;20159;-63
2024/02/16 08:16:14;;;;;;;19.85;12.25;;;7.50;88.40;;;;;;4980805;28;20038;-63
2024/02/16 08:18:39;;;;;;;20.23;12.32;;;7.60;88.50;;;;;;4986550;28;20536;-62
2024/02/16 08:21:05;;;;;;;20.63;12.40;;;7.60;88.60;;;;;;4986358;28;20038;-61
2024/02/16 08:23:31;;;;;;;21.50;12.65;;;7.70;88.80;;;;;;4984681;28;20066;-60
2024/02/16 08:25:57;;;;;;;21.58;11.00;;;7.70;89.00;;;;;;4983918;28;20354;-61
2024/02/16 08:28:24;;;;;;;20.25;12.43;;;7.80;89.30;;;;;;4978666;28;20054;-62
2024/02/16 08:30:50;;;;;;;21.95;13.60;;;7.80;89.50;;;;;;4980222;28;20039;-62
2024/02/16 08:33:15;;;;;;;23.38;14.13;;;7.90;89.70;;;;;;4985740;28;20050;-62
2024/02/16 08:35:41;;;;;;;21.02;14.70;;;8.00;89.90;;;;;;4984893;28;20070;-62
2024/02/16 08:38:10;;;;;;;20.75;13.25;;;8.00;89.90;;;;;;4980544;28;20046;-59
2024/02/16 08:40:37;;;;;;;20.48;12.20;;;8.10;89.70;;;;;;4980745;28;20485;-61
2024/02/16 08:43:04;;;;;;;19.90;12.80;;;8.20;89.90;;;;;;4978266;28;20038;-61
2024/02/16 08:45:30;;;;;;;17.05;12.20;;;8.30;89.90;;;;;;4980801;28;20054;-62
2024/02/16 08:47:57;;;;;;;22.60;13.02;;;8.40;89.80;;;;;;4985401;28;20069;-61
2024/02/16 08:50:23;;;;;;;17.70;12.57;;;8.50;89.80;;;;;;4982584;28;20037;-61
2024/02/16 08:52:50;;;;;;;20.35;13.07;;;8.60;89.90;;;;;;4981254;28;20030;-62
2024/02/16 08:55:16;;;;;;;19.60;12.55;;;8.70;89.90;;;;;;4983206;28;20062;-63
2024/02/16 08:57:41;;;;;;;19.65;13.48;;;8.80;89.90;;;;;;4988116;28;20034;-61
2024/02/16 09:00:07;;;;;;;22.20;12.88;;;8.90;89.90;;;;;;4987277;28;20069;-61
2024/02/16 09:02:33;;;;;;;21.38;12.35;;;9.00;90.00;;;;;;4979550;28;20034;-61
2024/02/16 09:04:58;;;;;;;19.98;12.05;;;9.10;90.00;;;;;;4983674;28;20036;-60
2024/02/16 09:07:25;;;;;;;15.45;11.85;;;9.20;90.00;;;;;;4981546;28;20033;-61
2024/02/16 09:09:51;;;;;;;17.85;11.43;;;9.30;89.90;;;;;;4982824;28;20034;-62
2024/02/16 09:12:17;;;;;;;18.17;11.57;;;9.40;89.70;;;;;;4985832;28;20418;-60
2024/02/16 09:14:42;;;;;;;16.13;10.93;;;9.60;89.60;;;;;;4977669;28;20097;-63
2024/02/16 09:17:08;;;;;;;14.73;10.50;;;9.60;89.20;;;;;;4984841;28;20062;-62
2024/02/16 09:19:33;;;;;;;13.30;10.43;;;9.70;89.20;;;;;;4972247;28;20035;-62
2024/02/16 09:22:03;;;;;;;14.85;10.70;;;9.80;89.00;;;;;;4982620;28;20034;-62
2024/02/16 09:24:29;;;;;;;16.27;9.95;;;9.90;88.90;;;;;;4985638;28;20027;-61
2024/02/16 09:27:04;;;;;;;13.45;10.52;;;10.00;88.90;;;;;;4985690;28;20427;-62
2024/02/16 09:29:30;;;;;;;12.38;10.00;;;10.10;88.80;;;;;;4984339;28;20080;-61
2024/02/16 09:31:56;;;;;;;13.65;10.18;;;10.10;89.50;;;;;;4977161;28;20035;-60
2024/02/16 09:34:21;;;;;;;14.82;10.30;;;10.20;88.50;;;;;;4985735;28;20529;-62
2024/02/16 09:36:47;;;;;;;15.40;9.52;;;10.30;88.40;;;;;;4982106;28;20047;-62
2024/02/16 09:39:12;;;;;;;12.95;9.18;;;10.40;88.30;;;;;;4980516;28;20137;-62
2024/02/16 09:41:48;;;;;;;12.35;9.18;;;10.50;88.30;;;;;;4977788;28;20034;-63
2024/02/16 09:44:14;;;;;;;12.95;9.07;;;10.60;88.00;;;;;;4982452;28;20089;-61
2024/02/16 09:46:40;;;;;;;10.95;8.45;;;10.70;87.90;;;;;;4983919;28;20458;-62
2024/02/16 09:49:05;;;;;;;11.80;9.35;;;10.80;87.80;;;;;;4983539;28;20661;-61
2024/02/16 09:51:31;;;;;;;12.70;9.27;;;10.80;87.60;;;;;;4985253;28;20031;-63
2024/02/16 09:53:57;;;;;;;11.45;8.57;;;10.90;87.60;;;;;;4984731;28;20158;-61
2024/02/16 09:56:24;;;;;;;9.93;8.63;;;11.00;87.40;;;;;;4985427;28;20037;-63
2024/02/16 09:58:51;;;;;;;11.77;9.02;;;11.10;87.30;;;;;;4986438;28;20042;-61
2024/02/16 10:01:20;;;;;;;14.43;8.88;;;11.20;87.10;;;;;;4988052;28;20062;-62
2024/02/16 10:03:45;;;;;;;11.13;8.10;;;11.30;87.00;;;;;;4978475;28;20043;-62
2024/02/16 10:06:11;;;;;;;12.40;8.77;;;11.40;86.90;;;;;;4989145;28;20044;-62
2024/02/16 10:08:53;;;;;;;11.40;7.78;;;11.50;86.60;;;;;;4983991;28;20043;-63
2024/02/16 10:11:21;;;;;;;11.35;7.60;;;11.60;86.10;;;;;;4984347;28;20038;-62
2024/02/16 10:13:58;;;;;;;10.70;7.45;;;11.70;86.00;;;;;;4987704;28;20096;-62
2024/02/16 10:16:25;;;;;;;16.77;11.10;;;11.90;85.50;;;;;;4982233;28;20042;-61
2024/02/16 10:18:51;;;;;;;13.85;10.82;;;11.90;85.50;;;;;;4987680;28;20035;-62
2024/02/16 10:21:29;;;;;;;12.40;8.70;;;12.00;85.30;;;;;;4985745;28;20404;-62
2024/02/16 10:24:09;;;;;;;12.38;8.38;;;12.10;84.50;;;;;;4989401;28;20033;-63
2024/02/16 10:26:38;;;;;;;9.70;7.50;;;12.20;84.20;;;;;;4985674;28;20133;-62
2024/02/16 10:29:06;;;;;;;12.63;7.05;;;12.30;84.40;;;;;;4984370;28;20050;-63
2024/02/16 10:31:32;;;;;;;13.68;6.80;;;12.30;84.10;;;;;;4983673;28;20532;-62
2024/02/16 10:34:06;;;;;;;7.00;6.13;;;12.40;83.60;;;;;;4987763;28;20066;-60
2024/02/16 10:36:33;;;;;;;7.80;5.80;;;12.50;83.50;;;;;;4985312;28;20117;-64
2024/02/16 10:39:04;;;;;;;9.18;6.32;;;12.60;83.40;;;;;;4982853;28;20520;-62
2024/02/16 10:41:34;;;;;;;8.98;6.57;;;12.60;83.20;;;;;;4986895;28;20141;-63
2024/02/16 10:44:00;;;;;;;6.53;5.70;;;12.70;83.20;;;;;;4984652;28;20042;-63
2024/02/16 10:46:27;;;;;;;8.68;5.82;;;12.80;82.70;;;;;;4981041;28;20452;-63
2024/02/16 10:48:52;;;;;;;8.63;5.78;;;12.90;82.30;;;;;;4986359;28;20613;-63
2024/02/16 10:51:24;;;;;;;7.53;5.53;;;13.00;82.30;;;;;;4988149;28;20129;-63
2024/02/16 10:53:55;;;;;;;7.57;5.32;;;13.10;81.60;;;;;;4985889;28;20050;-63
2024/02/16 10:56:37;;;;;;;6.10;5.20;;;13.20;81.70;;;;;;4984746;28;20050;-62
2024/02/16 10:59:08;;;;;;;7.05;4.97;;;13.30;80.90;;;;;;4980987;28;20706;-63
2024/02/16 11:01:44;;;;;;;6.13;4.93;;;13.40;80.90;;;;;;4986718;28;20042;-61
2024/02/16 11:04:16;;;;;;;6.50;4.78;;;13.50;79.80;;;;;;4989979;28;20540;-63
2024/02/16 11:06:46;;;;;;;5.65;4.50;;;13.70;80.00;;;;;;4984840;28;20054;-62
2024/02/16 11:09:22;;;;;;;5.70;4.10;;;13.80;79.40;;;;;;4987167;28;20101;-61
2024/02/16 11:11:58;;;;;;;8.93;4.75;;;13.90;79.40;;;;;;4983685;28;20043;-63
2024/02/16 11:14:24;;;;;;;7.93;4.65;;;14.00;78.20;;;;;;4982680;28;20031;-63
2024/02/16 11:16:54;;;;;;;6.28;4.22;;;14.00;78.60;;;;;;4986965;28;20026;-62
2024/02/16 11:19:21;;;;;;;6.18;4.28;;;14.00;78.00;;;;;;4987041;28;20030;-63
2024/02/16 11:22:04;;;;;;;4.95;4.40;;;14.10;77.20;;;;;;4980604;28;20039;-63
2024/02/16 11:24:34;;;;;;;6.32;4.30;;;14.20;76.70;;;;;;4985184;28;20026;-63
2024/02/16 11:27:07;;;;;;;7.97;4.53;;;14.20;77.30;;;;;;4987720;28;20498;-61
2024/02/16 11:29:35;;;;;;;4.82;4.05;;;14.30;77.00;;;;;;4987905;28;20541;-62
2024/02/16 11:32:04;;;;;;;6.80;4.03;;;14.40;77.30;;;;;;4985506;28;20034;-61
2024/02/16 11:34:31;;;;;;;4.72;4.15;;;14.50;77.00;;;;;;4987293;28;20494;-61
2024/02/16 11:36:58;;;;;;;6.22;4.10;;;14.50;77.10;;;;;;4986071;28;20490;-63
2024/02/16 11:39:25;;;;;;;5.22;3.50;;;14.60;76.80;;;;;;4983159;28;20038;-63
2024/02/16 11:42:11;;;;;;;6.40;3.17;;;14.70;76.50;;;;;;4986453;28;20495;-61
2024/02/16 11:44:41;;;;;;;4.90;3.30;;;14.70;75.00;;;;;;4986856;28;20039;-62
2024/02/16 11:47:14;;;;;;;5.30;3.05;;;14.80;76.00;;;;;;4986763;28;20026;-63
2024/02/16 11:49:40;;;;;;;4.10;3.10;;;14.90;75.10;;;;;;4984141;28;20046;-62
2024/02/16 11:52:07;;;;;;;3.80;3.03;;;15.00;74.90;;;;;;4985112;28;20038;-63
2024/02/16 11:54:33;;;;;;;3.50;2.85;;;15.10;74.50;;;;;;4984344;28;20030;-61
2024/02/16 11:56:58;;;;;;;4.70;2.78;;;15.10;74.60;;;;;;4983669;28;20030;-60
2024/02/16 11:59:25;;;;;;;2.72;2.47;;;15.20;74.30;;;;;;4988811;28;20051;-62
2024/02/16 12:01:57;;;;;;;3.28;2.85;;;15.30;74.00;;;;;;4984397;28;20129;-62
2024/02/16 12:04:24;;;;;;;5.43;3.30;;;15.40;73.60;;;;;;4981191;28;20042;-62
2024/02/16 12:07:01;;;;;;;3.90;2.50;;;15.50;73.80;;;;;;4984764;28;20035;-63
2024/02/16 12:09:27;;;;;;;4.97;2.83;;;15.50;73.20;;;;;;4982448;28;20042;-63
2024/02/16 12:11:54;;;;;;;5.60;2.70;;;15.60;73.40;;;;;;4986102;28;20049;-62
2024/02/16 12:14:22;;;;;;;4.22;2.60;;;15.70;72.80;;;;;;4982995;28;20174;-62
2024/02/16 12:16:52;;;;;;;5.13;2.50;;;15.80;72.30;;;;;;4981612;28;20521;-63
2024/02/16 12:19:22;;;;;;;4.55;2.60;;;15.90;71.70;;;;;;4984792;28;20057;-60
2024/02/16 12:21:58;;;;;;;2.72;2.53;;;15.90;72.00;;;;;;4981353;28;20046;-62
2024/02/16 12:24:24;;;;;;;3.75;2.35;;;16.00;71.40;;;;;;4982836;28;20084;-61
2024/02/16 12:26:50;;;;;;;4.20;2.42;;;16.00;71.60;;;;;;4981136;28;20130;-63
2024/02/16 12:29:16;;;;;;;6.10;2.28;;;16.10;71.10;;;;;;4982821;28;20068;-63
2024/02/16 12:31:44;;;;;;;4.25;2.70;;;16.10;70.80;;;;;;4979493;28;20035;-63
2024/02/16 12:34:10;;;;;;;4.38;2.55;;;16.20;70.10;;;;;;4989366;28;20042;-63
2024/02/16 12:36:38;;;;;;;4.00;2.17;;;16.20;70.40;;;;;;4986269;28;20131;-61
2024/02/16 12:39:04;;;;;;;4.65;2.42;;;16.20;70.20;;;;;;4980456;28;20038;-61
2024/02/16 12:41:33;;;;;;;3.17;2.30;;;16.30;70.10;;;;;;4983768;28;20038;-63
2024/02/16 12:43:59;;;;;;;5.22;2.55;;;16.30;69.60;;;;;;4979307;28;20054;-62